Time;durP1;ratioP1;P1;durP2;ratioP2;P2;SDS_P1;SDS_P2;PMS_P1;PMS_P2;Temp;Humidity;BMP_temperature;BMP_pressure;BME280_temperature;BME280_humidity;BME280_pressure;Samples;Min_cycle;Max_cycle;Signal;HPM_P1;HPM_P2
2022/03/29 00:02:20;;;;;;;13.55;12.15;;;10.80;93.20;;;;;;5056082;28;20224;-66
2022/03/29 00:04:48;;;;;;;13.27;11.90;;;10.70;93.10;;;;;;5056136;28;20221;-66
2022/03/29 00:07:15;;;;;;;13.50;12.05;;;10.70;93.20;;;;;;5056334;28;20225;-66
2022/03/29 00:09:42;;;;;;;13.45;11.95;;;10.70;93.20;;;;;;5055426;28;20229;-66
2022/03/29 00:12:09;;;;;;;14.00;12.13;;;10.70;93.30;;;;;;5053366;28;20259;-66
2022/03/29 00:14:36;;;;;;;14.50;12.93;;;10.70;93.40;;;;;;5053045;28;20227;-66
2022/03/29 00:17:03;;;;;;;14.82;12.38;;;10.60;93.50;;;;;;5053816;28;20236;-66
2022/03/29 00:19:30;;;;;;;14.05;12.27;;;10.60;93.90;;;;;;5054080;28;20232;-65
2022/03/29 00:21:58;;;;;;;16.70;12.57;;;10.60;93.60;;;;;;5054179;28;20385;-67
2022/03/29 00:24:25;;;;;;;12.23;10.88;;;10.60;93.60;;;;;;5054279;28;20229;-67
2022/03/29 00:26:52;;;;;;;12.80;11.27;;;10.60;93.70;;;;;;5054514;28;20247;-67
2022/03/29 00:29:19;;;;;;;13.52;11.80;;;10.60;93.80;;;;;;5048301;28;20229;-66
2022/03/29 00:31:46;;;;;;;14.98;13.25;;;10.60;93.90;;;;;;5050906;28;20247;-66
2022/03/29 00:34:12;;;;;;;16.35;12.15;;;10.50;93.90;;;;;;5055580;28;20286;-66
2022/03/29 00:36:40;;;;;;;14.35;11.52;;;10.50;93.80;;;;;;5055437;28;20225;-67
2022/03/29 00:39:08;;;;;;;14.02;12.55;;;10.50;93.90;;;;;;5055944;28;20224;-66
2022/03/29 00:41:35;;;;;;;13.60;11.77;;;10.50;94.00;;;;;;5055318;28;20306;-67
2022/03/29 00:44:02;;;;;;;13.73;11.65;;;10.50;94.10;;;;;;5055272;28;20627;-66
2022/03/29 00:46:28;;;;;;;14.82;12.30;;;10.60;94.20;;;;;;5055801;28;20674;-67
2022/03/29 00:48:55;;;;;;;14.43;11.93;;;10.50;94.20;;;;;;5055211;28;20228;-67
2022/03/29 00:51:22;;;;;;;15.10;12.32;;;10.50;94.30;;;;;;5055599;28;20263;-66
2022/03/29 00:53:49;;;;;;;14.93;12.30;;;10.50;94.40;;;;;;5055194;28;20227;-67
2022/03/29 00:56:20;;;;;;;12.82;11.52;;;10.50;94.40;;;;;;5054844;28;20224;-66
2022/03/29 00:58:47;;;;;;;15.02;12.98;;;10.50;94.50;;;;;;5054439;28;20221;-66
2022/03/29 01:01:15;;;;;;;14.07;12.63;;;10.50;94.60;;;;;;5055517;28;20224;-66
2022/03/29 01:03:42;;;;;;;14.35;12.43;;;10.50;94.60;;;;;;5054844;28;20225;-66
2022/03/29 01:06:09;;;;;;;16.20;12.60;;;10.50;94.70;;;;;;5054546;28;20225;-67
2022/03/29 01:08:37;;;;;;;15.70;11.90;;;10.50;94.70;;;;;;5054810;28;20228;-67
2022/03/29 01:11:05;;;;;;;13.48;11.52;;;10.50;94.70;;;;;;5053608;28;20229;-67
2022/03/29 01:13:33;;;;;;;18.38;15.35;;;10.50;94.80;;;;;;5055156;28;20240;-66
2022/03/29 01:17:38;;;;;;;19.83;12.63;;;10.50;94.80;;;;;;5054732;28;21045;-67
2022/03/29 01:18:48;;;;;;;14.02;12.30;;;10.50;94.90;;;;;;5054801;28;20693;-66
2022/03/29 01:21:17;;;;;;;12.10;10.82;;;10.50;94.90;;;;;;5054604;28;20236;-66
2022/03/29 01:23:46;;;;;;;12.50;11.20;;;10.50;94.90;;;;;;5054755;28;20231;-66
2022/03/29 01:26:15;;;;;;;13.57;11.05;;;10.50;94.90;;;;;;5054585;28;20712;-66
2022/03/29 01:28:42;;;;;;;15.85;13.43;;;10.50;95.00;;;;;;5054502;28;20584;-66
2022/03/29 01:31:10;;;;;;;13.52;12.05;;;10.50;95.00;;;;;;5054611;28;20233;-66
2022/03/29 01:33:37;;;;;;;13.68;11.90;;;10.50;95.00;;;;;;5054594;28;20235;-66
2022/03/29 01:36:05;;;;;;;16.95;13.05;;;10.50;95.10;;;;;;5054714;28;20233;-66
2022/03/29 01:38:32;;;;;;;14.30;12.73;;;10.50;95.20;;;;;;5054544;28;20229;-66
2022/03/29 01:41:03;;;;;;;15.93;12.07;;;10.50;95.20;;;;;;5054100;28;20224;-66
2022/03/29 01:43:30;;;;;;;14.55;13.13;;;10.50;95.30;;;;;;5054253;28;20627;-66
2022/03/29 01:45:56;;;;;;;14.30;11.98;;;10.50;95.40;;;;;;5054186;28;20253;-66
2022/03/29 01:48:24;;;;;;;14.88;13.38;;;10.50;95.80;;;;;;5054580;28;20582;-66
2022/03/29 01:50:51;;;;;;;15.80;13.20;;;10.50;95.40;;;;;;5053634;28;20316;-66
2022/03/29 01:53:25;;;;;;;14.50;12.18;;;10.60;95.50;;;;;;5054322;28;20229;-66
2022/03/29 01:55:55;;;;;;;15.85;12.50;;;10.60;95.50;;;;;;5054077;28;20221;-66
2022/03/29 01:58:24;;;;;;;13.93;12.63;;;10.50;95.40;;;;;;5053820;28;20782;-66
2022/03/29 02:00:51;;;;;;;12.77;11.52;;;10.60;95.80;;;;;;5053721;28;20638;-66
2022/03/29 02:03:18;;;;;;;16.95;14.75;;;10.60;95.50;;;;;;5054231;28;20251;-66
2022/03/29 02:05:45;;;;;;;20.10;15.35;;;10.60;95.50;;;;;;5053755;28;20229;-66
2022/03/29 02:08:12;;;;;;;18.38;15.40;;;10.60;95.50;;;;;;5054106;28;20308;-66
2022/03/29 02:10:39;;;;;;;15.07;12.45;;;10.50;95.50;;;;;;5054094;28;20256;-67
2022/03/29 02:13:09;;;;;;;17.55;14.23;;;10.50;95.50;;;;;;5054005;28;21043;-67
2022/03/29 02:15:37;;;;;;;15.75;13.93;;;10.50;95.50;;;;;;5054079;28;20286;-67
2022/03/29 02:18:04;;;;;;;14.65;13.02;;;10.50;95.60;;;;;;5053604;28;20232;-67
2022/03/29 02:20:31;;;;;;;16.10;14.25;;;10.50;95.70;;;;;;5040363;28;20228;-67
2022/03/29 02:23:02;;;;;;;18.10;14.48;;;10.50;95.70;;;;;;5053173;28;20225;-67
2022/03/29 02:25:29;;;;;;;18.52;15.13;;;10.50;95.70;;;;;;5041135;28;20228;-67
2022/03/29 02:27:56;;;;;;;18.30;14.00;;;10.50;95.80;;;;;;5052965;28;20217;-67
2022/03/29 02:30:23;;;;;;;20.30;14.43;;;10.50;95.80;;;;;;5053782;28;20217;-67
2022/03/29 02:32:51;;;;;;;19.40;15.82;;;10.40;95.80;;;;;;5052952;28;20232;-67
2022/03/29 02:35:18;;;;;;;15.85;13.77;;;10.40;95.80;;;;;;5053162;28;20240;-67
2022/03/29 02:37:45;;;;;;;19.77;15.10;;;10.40;95.80;;;;;;5053150;28;20220;-67
2022/03/29 02:40:14;;;;;;;16.83;14.15;;;10.40;95.90;;;;;;5053507;28;20224;-67
2022/03/29 02:42:42;;;;;;;17.70;15.73;;;10.40;95.90;;;;;;5053411;28;20221;-66
2022/03/29 02:45:15;;;;;;;17.25;15.55;;;10.40;96.00;;;;;;5053437;28;20268;-67
2022/03/29 02:47:42;;;;;;;16.60;13.20;;;10.50;96.00;;;;;;5053409;28;20220;-66
2022/03/29 02:50:12;;;;;;;15.68;13.18;;;10.50;96.00;;;;;;5052906;28;20217;-66
2022/03/29 02:52:44;;;;;;;15.82;13.93;;;10.50;95.90;;;;;;5053333;28;20228;-66
2022/03/29 02:55:11;;;;;;;15.35;13.80;;;10.50;95.90;;;;;;5053030;28;20581;-66
2022/03/29 02:57:44;;;;;;;17.35;15.50;;;10.50;95.90;;;;;;5052744;28;20228;-66
2022/03/29 03:00:19;;;;;;;18.40;14.82;;;10.50;95.90;;;;;;5052303;28;20217;-66
2022/03/29 03:02:47;;;;;;;14.27;12.75;;;10.50;96.00;;;;;;5047208;28;20304;-66
2022/03/29 03:05:15;;;;;;;17.30;14.70;;;10.50;96.00;;;;;;5045838;28;20997;-67
2022/03/29 03:07:44;;;;;;;19.38;14.55;;;10.50;96.00;;;;;;5052653;28;20251;-66
2022/03/29 03:10:13;;;;;;;16.17;14.20;;;10.50;96.00;;;;;;5052565;28;20714;-66
2022/03/29 03:12:40;;;;;;;16.42;14.73;;;10.50;96.00;;;;;;5052697;28;20217;-67
2022/03/29 03:15:10;;;;;;;20.45;16.80;;;10.50;96.10;;;;;;5052395;28;20232;-67
2022/03/29 03:17:36;;;;;;;17.00;15.18;;;10.40;96.20;;;;;;5053028;28;20220;-67
2022/03/29 03:20:04;;;;;;;16.42;13.50;;;10.40;96.20;;;;;;5052470;28;20225;-67
2022/03/29 03:22:34;;;;;;;18.70;15.07;;;10.40;96.20;;;;;;5052768;28;20228;-67
2022/03/29 03:25:00;;;;;;;18.45;14.50;;;10.40;96.30;;;;;;5052182;28;20320;-67
2022/03/29 03:27:27;;;;;;;16.23;14.52;;;10.40;96.40;;;;;;5052929;28;20217;-67
2022/03/29 03:29:54;;;;;;;17.55;14.63;;;10.40;96.50;;;;;;5052112;28;20687;-67
2022/03/29 03:32:21;;;;;;;19.90;15.13;;;10.40;96.50;;;;;;5052672;28;20304;-67
2022/03/29 03:34:50;;;;;;;19.40;16.30;;;10.40;96.50;;;;;;5051802;28;20220;-67
2022/03/29 03:37:17;;;;;;;19.45;15.50;;;10.40;96.60;;;;;;5052288;28;20217;-66
2022/03/29 03:39:45;;;;;;;19.92;16.05;;;10.30;96.60;;;;;;5052183;28;20220;-66
2022/03/29 03:42:12;;;;;;;20.48;15.55;;;10.40;96.70;;;;;;5052020;28;20229;-66
2022/03/29 03:44:40;;;;;;;19.55;16.05;;;10.40;96.70;;;;;;5052498;28;20221;-66
2022/03/29 03:47:08;;;;;;;19.05;15.40;;;10.40;96.70;;;;;;5051490;28;20741;-67
2022/03/29 03:49:35;;;;;;;18.20;16.30;;;10.50;96.70;;;;;;5052426;28;20233;-67
2022/03/29 03:52:01;;;;;;;17.65;14.93;;;10.40;96.70;;;;;;5051922;28;20247;-66
2022/03/29 03:54:28;;;;;;;25.67;18.25;;;10.50;96.70;;;;;;5052276;28;20564;-66
2022/03/29 03:56:56;;;;;;;20.52;16.70;;;10.50;96.60;;;;;;5034439;28;20225;-67
2022/03/29 03:59:23;;;;;;;18.70;15.98;;;10.40;96.30;;;;;;5039056;28;20228;-67
2022/03/29 04:01:50;;;;;;;27.30;19.80;;;10.40;96.40;;;;;;5052404;28;20236;-67
2022/03/29 04:04:17;;;;;;;37.65;27.33;;;10.40;96.40;;;;;;5042190;28;20217;-66
2022/03/29 04:06:44;;;;;;;20.35;17.33;;;10.40;96.40;;;;;;5042509;28;20229;-67
2022/03/29 04:09:11;;;;;;;20.73;17.52;;;10.40;96.20;;;;;;5051929;28;20225;-67
2022/03/29 04:11:38;;;;;;;28.27;20.00;;;10.40;96.10;;;;;;5052023;28;20224;-66
2022/03/29 04:14:06;;;;;;;19.85;15.70;;;10.40;96.00;;;;;;5052036;28;20225;-67
2022/03/29 04:16:33;;;;;;;20.85;16.42;;;10.40;96.00;;;;;;5052180;28;20220;-67
2022/03/29 04:19:00;;;;;;;17.77;15.93;;;10.50;96.00;;;;;;5051809;28;20231;-67
2022/03/29 04:21:27;;;;;;;28.27;22.77;;;10.40;96.00;;;;;;5052073;28;20220;-67
2022/03/29 04:23:54;;;;;;;33.38;24.65;;;10.50;96.00;;;;;;5051947;28;20316;-67
2022/03/29 04:26:20;;;;;;;20.27;16.65;;;10.50;96.00;;;;;;5051670;28;20659;-67
2022/03/29 04:28:47;;;;;;;23.45;18.92;;;10.40;95.80;;;;;;5052192;28;20224;-66
2022/03/29 04:31:15;;;;;;;19.55;16.73;;;10.40;95.70;;;;;;5051579;28;20256;-67
2022/03/29 04:33:45;;;;;;;21.77;18.30;;;10.40;95.60;;;;;;5052103;28;20221;-67
2022/03/29 04:36:11;;;;;;;25.67;18.05;;;10.40;95.50;;;;;;5051638;28;20354;-67
2022/03/29 04:38:38;;;;;;;21.25;17.27;;;10.40;95.60;;;;;;5052130;28;20567;-67
2022/03/29 04:41:05;;;;;;;22.42;17.52;;;10.40;95.60;;;;;;5051456;28;20228;-66
2022/03/29 04:43:32;;;;;;;21.65;17.50;;;10.30;95.80;;;;;;5051378;28;20282;-65
2022/03/29 04:46:01;;;;;;;21.73;17.25;;;10.40;96.00;;;;;;5056594;28;20238;-66
2022/03/29 04:48:30;;;;;;;20.83;16.63;;;10.30;96.00;;;;;;5062709;28;20220;-66
2022/03/29 04:50:57;;;;;;;19.40;16.70;;;10.30;96.10;;;;;;5042692;28;20236;-66
2022/03/29 04:53:24;;;;;;;20.33;17.70;;;10.30;96.10;;;;;;5055043;28;20248;-67
2022/03/29 04:55:51;;;;;;;26.02;18.52;;;10.30;95.90;;;;;;5049649;28;20217;-66
2022/03/29 04:58:18;;;;;;;21.58;18.05;;;10.30;95.90;;;;;;5055040;28;20290;-67
2022/03/29 05:00:45;;;;;;;31.33;19.25;;;10.30;95.70;;;;;;5055290;28;20229;-67
2022/03/29 05:03:18;;;;;;;26.75;20.27;;;10.30;95.60;;;;;;5054953;28;20244;-67
2022/03/29 05:05:52;;;;;;;21.75;18.50;;;10.30;95.60;;;;;;5055321;28;20228;-67
2022/03/29 05:08:18;;;;;;;24.92;21.92;;;10.30;95.60;;;;;;5054568;28;20237;-67
2022/03/29 05:10:45;;;;;;;23.02;18.95;;;10.30;95.60;;;;;;5055029;28;20239;-67
2022/03/29 05:13:12;;;;;;;22.58;17.95;;;10.20;95.50;;;;;;5054828;28;20229;-67
2022/03/29 05:15:39;;;;;;;21.02;17.65;;;10.20;95.20;;;;;;5055306;28;20597;-67
2022/03/29 05:18:06;;;;;;;21.05;17.02;;;10.20;95.30;;;;;;5054710;28;20240;-67
2022/03/29 05:20:33;;;;;;;37.75;24.13;;;10.20;95.30;;;;;;5055224;28;20710;-66
2022/03/29 05:23:02;;;;;;;19.40;16.77;;;10.20;95.30;;;;;;5054836;28;20267;-66
2022/03/29 05:25:29;;;;;;;21.48;17.65;;;10.20;95.40;;;;;;5054676;28;20241;-66
2022/03/29 05:27:57;;;;;;;20.33;17.73;;;10.20;95.40;;;;;;5055029;28;20205;-67
2022/03/29 05:30:24;;;;;;;24.25;19.63;;;10.20;95.50;;;;;;5053824;28;20220;-67
2022/03/29 05:32:57;;;;;;;22.55;17.05;;;10.10;95.50;;;;;;5054807;28;20216;-67
2022/03/29 05:35:30;;;;;;;42.90;34.15;;;10.10;95.50;;;;;;5049331;28;20232;-67
2022/03/29 05:37:58;;;;;;;26.95;18.35;;;10.10;95.70;;;;;;5042438;28;20275;-67
2022/03/29 05:40:28;;;;;;;23.20;18.02;;;10.10;95.70;;;;;;5054054;28;20291;-67
2022/03/29 05:42:56;;;;;;;28.30;20.33;;;10.10;95.90;;;;;;5054794;28;20225;-67
2022/03/29 05:45:23;;;;;;;24.58;18.33;;;10.10;95.90;;;;;;5054027;28;20301;-66
2022/03/29 05:50:35;;;;;;;27.65;20.70;;;10.20;96.00;;;;;;5054029;28;20327;-66
2022/03/29 05:53:02;;;;;;;27.98;20.63;;;10.10;95.90;;;;;;5054545;28;20247;-66
2022/03/29 05:55:31;;;;;;;30.55;23.20;;;10.20;96.10;;;;;;5047679;28;20222;-67
2022/03/29 05:57:58;;;;;;;33.78;23.60;;;10.20;96.10;;;;;;5045274;28;20220;-67
2022/03/29 06:00:27;;;;;;;43.55;29.65;;;10.20;96.10;;;;;;5053813;28;20235;-67
2022/03/29 06:02:54;;;;;;;40.97;29.45;;;10.20;96.20;;;;;;5047018;28;20728;-67
2022/03/29 06:05:21;;;;;;;39.25;27.98;;;10.20;96.20;;;;;;5047659;28;20224;-66
2022/03/29 06:07:48;;;;;;;30.60;22.73;;;10.20;96.30;;;;;;5054205;28;20694;-67
2022/03/29 06:10:15;;;;;;;41.92;27.60;;;10.20;96.30;;;;;;5053578;28;20216;-67
2022/03/29 06:12:45;;;;;;;36.40;29.02;;;10.20;96.30;;;;;;5053964;28;20217;-67
2022/03/29 06:15:13;;;;;;;33.88;23.20;;;10.20;96.20;;;;;;5053744;28;20247;-67
2022/03/29 06:17:40;;;;;;;30.90;21.80;;;10.20;96.20;;;;;;5053923;28;20231;-67
2022/03/29 06:20:10;;;;;;;28.52;21.85;;;10.30;96.10;;;;;;5053849;28;20229;-67
2022/03/29 06:22:43;;;;;;;29.33;20.73;;;10.30;96.00;;;;;;5053608;28;20781;-66
2022/03/29 06:25:11;;;;;;;26.52;21.35;;;10.30;95.90;;;;;;5053807;28;20240;-67
2022/03/29 06:27:38;;;;;;;23.88;18.77;;;10.30;95.90;;;;;;5053379;28;20213;-66
2022/03/29 06:30:08;;;;;;;24.98;18.67;;;10.30;95.80;;;;;;5054011;28;20226;-66
2022/03/29 06:32:35;;;;;;;30.60;21.75;;;10.30;95.70;;;;;;5053135;28;20228;-66
2022/03/29 06:35:01;;;;;;;37.35;23.10;;;10.40;95.70;;;;;;5049536;28;20228;-67
2022/03/29 06:37:29;;;;;;;32.58;21.35;;;10.30;95.60;;;;;;5053197;28;20239;-67
2022/03/29 06:39:56;;;;;;;25.75;18.85;;;10.30;95.40;;;;;;5053563;28;20307;-67
2022/03/29 06:42:23;;;;;;;27.38;21.23;;;10.40;95.40;;;;;;5053000;28;20577;-67
2022/03/29 06:44:49;;;;;;;29.83;21.17;;;10.50;95.40;;;;;;5053739;28;20221;-67
2022/03/29 06:47:18;;;;;;;24.20;20.00;;;10.50;95.30;;;;;;5052656;28;20239;-67
2022/03/29 06:49:44;;;;;;;26.80;19.60;;;10.60;95.10;;;;;;5053292;28;20247;-67
2022/03/29 06:52:11;;;;;;;26.80;18.10;;;10.60;95.00;;;;;;5047128;28;20225;-67
2022/03/29 06:54:38;;;;;;;29.52;19.75;;;10.60;95.20;;;;;;5044658;28;20681;-67
2022/03/29 06:57:05;;;;;;;24.70;18.58;;;10.60;94.50;;;;;;5053128;28;20544;-66
2022/03/29 06:59:32;;;;;;;28.83;21.38;;;10.70;94.50;;;;;;5052910;28;20227;-67
2022/03/29 07:01:59;;;;;;;29.33;21.67;;;10.80;94.40;;;;;;5053041;28;20228;-67
2022/03/29 07:04:27;;;;;;;40.50;27.48;;;10.80;94.10;;;;;;5046275;28;20240;-66
2022/03/29 07:06:54;;;;;;;40.35;27.90;;;10.90;94.10;;;;;;5046351;28;20234;-66
2022/03/29 07:12:06;;;;;;;30.23;19.17;;;10.90;93.50;;;;;;5040735;28;20305;-67
2022/03/29 07:14:33;;;;;;;27.88;19.20;;;10.90;93.00;;;;;;5052512;28;20279;-67
2022/03/29 07:17:00;;;;;;;27.80;20.52;;;11.00;93.00;;;;;;5053031;28;20427;-67
2022/03/29 07:19:28;;;;;;;31.92;23.35;;;11.10;92.60;;;;;;5052330;28;20256;-66
2022/03/29 07:21:56;;;;;;;36.08;25.17;;;11.10;92.20;;;;;;5052842;28;20680;-67
2022/03/29 07:24:23;;;;;;;35.15;22.50;;;11.10;91.70;;;;;;5052115;28;20328;-66
2022/03/29 07:26:50;;;;;;;22.15;17.20;;;11.00;90.80;;;;;;5052824;28;20240;-67
2022/03/29 07:29:18;;;;;;;22.73;17.40;;;11.00;90.60;;;;;;5052809;28;20693;-67
2022/03/29 07:31:45;;;;;;;31.00;18.52;;;11.00;90.70;;;;;;5052463;28;20971;-67
2022/03/29 07:34:11;;;;;;;23.35;17.80;;;11.00;90.70;;;;;;5052506;28;20304;-67
2022/03/29 07:36:41;;;;;;;30.13;22.23;;;11.00;90.50;;;;;;5052284;28;20240;-66
2022/03/29 07:39:08;;;;;;;18.65;15.23;;;11.00;89.90;;;;;;5052571;28;20228;-66
2022/03/29 07:41:35;;;;;;;26.85;18.67;;;11.00;89.30;;;;;;5052079;28;20232;-67
2022/03/29 07:44:02;;;;;;;25.60;16.88;;;11.10;89.20;;;;;;5052589;28;20307;-67
2022/03/29 07:46:31;;;;;;;21.50;14.57;;;11.10;88.80;;;;;;5059444;28;20232;-67
2022/03/29 07:48:58;;;;;;;24.00;17.08;;;11.10;87.20;;;;;;5055198;28;20216;-67
2022/03/29 07:51:25;;;;;;;23.60;12.82;;;11.10;87.00;;;;;;5052041;28;20232;-66
2022/03/29 07:53:53;;;;;;;24.90;14.73;;;11.20;86.90;;;;;;5052043;28;20221;-66
2022/03/29 07:56:20;;;;;;;18.63;13.85;;;11.30;87.80;;;;;;5047376;28;20589;-66
2022/03/29 07:58:47;;;;;;;26.08;18.85;;;11.40;87.30;;;;;;5050709;28;20220;-67
2022/03/29 08:01:14;;;;;;;32.30;20.05;;;11.40;86.80;;;;;;5052274;28;20232;-66
2022/03/29 08:03:42;;;;;;;28.77;18.05;;;11.40;86.70;;;;;;5047965;28;20220;-67
2022/03/29 08:06:09;;;;;;;28.33;20.00;;;11.50;86.60;;;;;;5043588;28;20717;-67
2022/03/29 08:08:35;;;;;;;18.55;15.07;;;11.50;86.20;;;;;;5047871;28;20681;-67
2022/03/29 08:11:04;;;;;;;22.40;15.15;;;11.50;85.20;;;;;;5049959;28;20238;-67
2022/03/29 08:13:31;;;;;;;28.20;20.90;;;11.50;84.50;;;;;;5050370;28;20221;-67
2022/03/29 08:16:01;;;;;;;20.77;14.75;;;11.50;84.30;;;;;;5048570;28;20263;-66
2022/03/29 08:18:28;;;;;;;17.50;15.15;;;11.60;83.90;;;;;;5038224;28;20228;-67
2022/03/29 08:20:55;;;;;;;24.23;18.33;;;11.50;83.00;;;;;;5044732;28;20232;-67
2022/03/29 08:23:22;;;;;;;26.88;15.48;;;11.50;83.30;;;;;;5053632;28;20223;-68
2022/03/29 08:25:50;;;;;;;16.17;13.35;;;11.50;83.00;;;;;;5047065;28;20221;-66
2022/03/29 08:28:19;;;;;;;18.98;14.32;;;11.60;83.10;;;;;;5056036;28;20239;-66
2022/03/29 08:30:47;;;;;;;16.13;12.40;;;11.60;83.10;;;;;;5053707;28;20724;-66
2022/03/29 08:33:14;;;;;;;21.25;15.30;;;11.60;81.80;;;;;;5053730;28;20232;-67
2022/03/29 08:35:45;;;;;;;18.88;12.77;;;11.60;81.40;;;;;;5052299;28;20229;-66
2022/03/29 08:38:11;;;;;;;20.90;12.18;;;11.60;81.30;;;;;;5054155;28;20232;-67
2022/03/29 08:40:40;;;;;;;17.70;14.23;;;11.70;80.80;;;;;;5054719;28;20237;-67
2022/03/29 08:43:08;;;;;;;21.27;15.48;;;11.70;80.80;;;;;;5054083;28;20726;-67
2022/03/29 08:45:39;;;;;;;16.30;12.55;;;11.70;81.00;;;;;;5050564;28;20663;-69
2022/03/29 08:48:07;;;;;;;15.65;12.65;;;11.80;81.00;;;;;;5058647;28;20233;-67
2022/03/29 08:50:36;;;;;;;14.60;12.93;;;11.90;80.80;;;;;;5049068;28;20225;-67
2022/03/29 08:53:04;;;;;;;25.65;18.50;;;11.90;80.60;;;;;;5043603;28;20668;-67
2022/03/29 08:55:31;;;;;;;22.70;11.93;;;11.90;80.20;;;;;;5051422;28;20275;-66
2022/03/29 08:57:57;;;;;;;15.90;12.82;;;12.00;79.70;;;;;;5044168;28;20225;-66
2022/03/29 09:00:24;;;;;;;16.63;13.98;;;12.00;78.60;;;;;;5049022;28;20225;-66
2022/03/29 09:02:53;;;;;;;14.80;10.98;;;12.00;78.80;;;;;;5049740;28;20229;-66
2022/03/29 09:05:23;;;;;;;17.23;12.23;;;12.10;78.60;;;;;;5048468;28;20228;-66
2022/03/29 09:07:52;;;;;;;17.08;12.05;;;12.10;78.40;;;;;;5053786;28;20228;-66
2022/03/29 09:10:21;;;;;;;18.85;12.65;;;12.10;78.80;;;;;;5052482;28;20225;-66
2022/03/29 09:12:48;;;;;;;14.65;11.75;;;12.10;79.20;;;;;;5049264;28;20228;-66
2022/03/29 09:15:15;;;;;;;14.98;11.68;;;12.10;79.20;;;;;;5040987;28;20227;-66
2022/03/29 09:17:45;;;;;;;17.90;13.10;;;12.10;78.80;;;;;;5047608;28;20221;-65
2022/03/29 09:20:15;;;;;;;14.10;11.30;;;12.20;78.20;;;;;;5048705;28;20268;-66
2022/03/29 09:22:45;;;;;;;15.73;12.98;;;12.20;77.80;;;;;;5041895;28;20604;-66
2022/03/29 09:25:14;;;;;;;18.17;13.00;;;12.30;78.00;;;;;;5040781;28;20679;-66
2022/03/29 09:28:05;;;;;;;20.55;14.02;;;12.30;78.20;;;;;;5051952;28;20232;-66
2022/03/29 09:30:38;;;;;;;20.08;13.63;;;12.40;78.20;;;;;;5035881;28;20225;-67
2022/03/29 09:33:07;;;;;;;18.58;13.98;;;12.40;76.90;;;;;;5041189;28;20681;-66
2022/03/29 09:35:51;;;;;;;16.85;13.80;;;12.50;76.80;;;;;;5053520;28;20270;-66
2022/03/29 09:38:23;;;;;;;24.88;16.25;;;12.60;76.30;;;;;;5043034;28;20232;-66
2022/03/29 09:40:50;;;;;;;25.20;19.45;;;12.70;76.30;;;;;;5041404;28;20329;-66
2022/03/29 09:43:21;;;;;;;20.05;17.33;;;12.70;76.00;;;;;;5054033;28;20709;-66
2022/03/29 09:45:50;;;;;;;21.48;14.90;;;12.70;75.80;;;;;;5045239;28;20217;-67
2022/03/29 09:48:32;;;;;;;15.43;13.85;;;12.70;75.20;;;;;;5044183;28;20230;-66
2022/03/29 09:51:17;;;;;;;19.17;16.02;;;12.80;74.70;;;;;;5051689;28;20220;-66
2022/03/29 09:53:47;;;;;;;18.50;14.13;;;12.80;74.80;;;;;;5043152;28;20890;-66
2022/03/29 09:56:15;;;;;;;24.77;16.27;;;12.80;74.80;;;;;;5050343;28;20221;-66
2022/03/29 09:58:43;;;;;;;20.23;14.75;;;12.80;74.30;;;;;;5048651;28;20225;-66
2022/03/29 10:01:23;;;;;;;24.83;14.95;;;12.80;73.60;;;;;;5045270;28;20229;-66
2022/03/29 10:03:52;;;;;;;20.23;15.07;;;12.80;73.50;;;;;;5044211;28;20220;-66
2022/03/29 10:06:25;;;;;;;19.05;16.70;;;12.70;73.60;;;;;;5048403;28;20225;-66
2022/03/29 10:11:43;;;;;;;19.08;15.20;;;12.80;74.30;;;;;;5053443;28;20239;-66
2022/03/29 10:14:15;;;;;;;23.90;16.60;;;12.90;74.20;;;;;;5054117;28;20361;-67
2022/03/29 10:16:45;;;;;;;15.75;13.38;;;13.00;74.30;;;;;;5053076;28;20562;-67
2022/03/29 10:19:12;;;;;;;13.55;11.15;;;13.00;72.30;;;;;;5053738;28;20237;-67
2022/03/29 10:21:42;;;;;;;17.20;13.05;;;13.10;69.60;;;;;;5049881;28;20232;-66
2022/03/29 10:24:09;;;;;;;17.30;12.88;;;13.10;69.20;;;;;;5053659;28;20236;-67
2022/03/29 10:26:36;;;;;;;16.20;12.00;;;13.10;69.30;;;;;;5051715;28;20683;-67
2022/03/29 10:29:07;;;;;;;16.95;12.02;;;13.10;69.50;;;;;;5044703;28;20239;-66
2022/03/29 10:31:36;;;;;;;15.30;12.52;;;13.20;68.90;;;;;;5052016;28;20687;-67
2022/03/29 10:34:28;;;;;;;13.98;11.32;;;13.10;67.70;;;;;;5052885;28;20231;-66
2022/03/29 10:37:08;;;;;;;14.02;11.50;;;13.10;64.70;;;;;;5031303;28;20249;-66
2022/03/29 10:39:47;;;;;;;13.35;10.93;;;13.10;64.20;;;;;;5050805;28;20225;-66
2022/03/29 10:42:32;;;;;;;11.90;10.38;;;13.20;64.60;;;;;;5050087;28;21096;-66
2022/03/29 10:45:05;;;;;;;14.07;10.50;;;13.20;64.30;;;;;;5045215;28;20651;-67
2022/03/29 10:47:33;;;;;;;21.05;12.63;;;13.30;64.60;;;;;;5048678;28;20232;-67
2022/03/29 10:50:01;;;;;;;18.83;14.38;;;13.30;65.30;;;;;;5047238;28;20234;-67
2022/03/29 10:52:31;;;;;;;15.02;11.98;;;13.30;65.70;;;;;;5042166;28;20224;-67
2022/03/29 10:55:25;;;;;;;17.67;13.30;;;13.40;65.80;;;;;;5042363;28;20221;-67
2022/03/29 10:58:12;;;;;;;12.70;11.40;;;13.50;66.00;;;;;;5038566;28;20221;-67
2022/03/29 11:00:41;;;;;;;13.98;12.52;;;13.50;66.50;;;;;;5045469;28;20290;-67
2022/03/29 11:03:13;;;;;;;22.20;12.70;;;13.60;66.30;;;;;;5040758;28;20225;-68
2022/03/29 11:06:06;;;;;;;13.55;11.48;;;13.60;65.30;;;;;;5047574;28;20217;-67
2022/03/29 11:08:35;;;;;;;14.52;11.48;;;13.70;64.60;;;;;;5048452;28;20224;-67
2022/03/29 11:11:02;;;;;;;13.40;10.85;;;13.60;63.20;;;;;;5045585;28;20229;-67
2022/03/29 11:13:32;;;;;;;12.52;10.35;;;13.70;63.40;;;;;;5048063;28;20223;-67
2022/03/29 11:16:02;;;;;;;12.50;10.77;;;13.70;63.00;;;;;;5048641;28;21066;-67
2022/03/29 11:18:50;;;;;;;11.23;9.57;;;13.80;62.80;;;;;;5052694;28;20319;-67
2022/03/29 11:21:39;;;;;;;10.77;9.05;;;13.80;62.70;;;;;;5044982;28;20460;-67
2022/03/29 11:24:10;;;;;;;8.57;7.60;;;13.90;61.60;;;;;;5052401;28;20666;-67
2022/03/29 11:26:37;;;;;;;8.45;6.97;;;13.90;58.90;;;;;;5052124;28;20232;-67
2022/03/29 11:29:08;;;;;;;15.13;11.35;;;14.00;57.90;;;;;;5046042;28;20233;-67
2022/03/29 11:31:37;;;;;;;11.52;10.38;;;14.00;57.60;;;;;;5048694;28;20690;-66
2022/03/29 11:34:05;;;;;;;11.45;10.02;;;14.00;57.80;;;;;;5056516;28;20228;-68
2022/03/29 11:36:35;;;;;;;9.70;7.90;;;14.00;58.30;;;;;;5041510;28;20233;-66
2022/03/29 11:39:02;;;;;;;12.40;9.93;;;14.00;57.60;;;;;;5049774;28;20480;-67
2022/03/29 11:41:33;;;;;;;8.93;6.80;;;14.10;57.60;;;;;;5049767;28;20316;-67
2022/03/29 11:44:02;;;;;;;10.40;7.07;;;14.10;56.00;;;;;;5050596;28;20545;-67
2022/03/29 11:46:45;;;;;;;9.85;6.35;;;14.10;55.10;;;;;;5038206;28;20217;-66
2022/03/29 11:49:13;;;;;;;10.30;4.30;;;14.10;54.90;;;;;;5051629;28;20241;-68
2022/03/29 11:51:40;;;;;;;10.98;5.10;;;14.10;53.90;;;;;;5049496;28;20513;-67
2022/03/29 11:54:07;;;;;;;7.00;5.70;;;14.10;53.70;;;;;;5051990;28;20259;-67
2022/03/29 11:56:39;;;;;;;8.23;4.70;;;14.10;52.80;;;;;;5050521;28;20220;-67
2022/03/29 11:59:08;;;;;;;7.75;4.43;;;14.00;52.80;;;;;;5047697;28;20950;-67
2022/03/29 12:01:36;;;;;;;5.03;4.63;;;14.10;52.90;;;;;;5051186;28;20229;-66
2022/03/29 12:04:07;;;;;;;5.32;4.53;;;14.10;52.80;;;;;;5048656;28;20478;-67
2022/03/29 12:06:47;;;;;;;5.68;4.82;;;14.10;52.80;;;;;;5047979;28;20678;-66
2022/03/29 12:09:21;;;;;;;8.70;4.83;;;14.20;53.00;;;;;;5044391;28;20722;-66
2022/03/29 12:11:49;;;;;;;5.90;4.87;;;14.20;52.60;;;;;;5048017;28;20489;-68
2022/03/29 12:14:17;;;;;;;10.53;5.23;;;14.20;51.90;;;;;;5050174;28;20801;-67
2022/03/29 12:16:46;;;;;;;16.23;7.22;;;14.20;51.70;;;;;;5048222;28;20463;-67
2022/03/29 12:19:14;;;;;;;12.13;5.10;;;14.20;51.40;;;;;;5048730;28;20682;-67
2022/03/29 12:21:44;;;;;;;8.80;4.87;;;14.30;51.20;;;;;;5049196;28;20968;-67
2022/03/29 12:24:12;;;;;;;8.90;4.47;;;14.30;51.30;;;;;;5056830;28;20459;-66
2022/03/29 12:26:42;;;;;;;13.00;8.17;;;14.30;51.10;;;;;;5051681;28;20466;-66
2022/03/29 12:29:12;;;;;;;7.90;5.77;;;14.30;51.60;;;;;;5051017;28;20980;-66
2022/03/29 12:31:40;;;;;;;11.63;6.10;;;14.30;51.00;;;;;;5050258;28;20798;-67
2022/03/29 12:34:08;;;;;;;9.18;6.13;;;14.30;51.20;;;;;;5054542;28;20468;-67
2022/03/29 12:36:38;;;;;;;5.00;3.70;;;14.40;51.30;;;;;;5047308;28;20304;-67
2022/03/29 12:39:08;;;;;;;8.13;5.63;;;14.40;51.10;;;;;;5049428;28;20465;-67
2022/03/29 12:41:41;;;;;;;11.80;6.97;;;14.40;50.90;;;;;;5049550;28;20239;-67
2022/03/29 12:44:11;;;;;;;12.25;8.55;;;14.30;50.30;;;;;;5038744;28;20542;-66
2022/03/29 12:46:39;;;;;;;10.27;3.93;;;14.30;50.80;;;;;;5051012;28;20235;-67